createdAt,value
2023-01-08T00:00:10.256Z,1010.50
2023-01-08T00:00:47.130Z,1010.60
2023-01-08T00:01:13.468Z,1010.60
2023-01-08T00:01:44.186Z,1010.50
2023-01-08T00:02:14.289Z,1010.50
2023-01-08T00:02:45.373Z,1010.70
2023-01-08T00:03:16.093Z,1010.70
2023-01-08T00:04:18.332Z,1010.70
2023-01-08T00:04:49.100Z,1010.40
2023-01-08T00:05:37.248Z,1010.40
2023-01-08T00:05:52.320Z,1010.40
2023-01-08T00:06:24.168Z,1010.40
2023-01-08T00:06:54.887Z,1010.40
2023-01-08T00:07:40.938Z,1010.40
2023-01-08T00:07:54.720Z,1010.40
2023-01-08T00:08:26.003Z,1010.40
2023-01-08T00:08:56.812Z,1010.29
2023-01-08T00:09:27.368Z,1010.29
2023-01-08T00:09:59.180Z,1010.19
2023-01-08T00:10:29.948Z,1010.29
2023-01-08T00:11:03.832Z,1010.29
2023-01-08T00:11:33.185Z,1010.29
2023-01-08T00:12:06.404Z,1010.29
2023-01-08T00:12:34.816Z,1010.29
2023-01-08T00:13:06.525Z,1010.29
2023-01-08T00:13:35.611Z,1010.19
2023-01-08T00:14:07.047Z,1010.19
2023-01-08T00:14:38.567Z,1010.40
2023-01-08T00:15:09.802Z,1010.40
2023-01-08T00:15:39.721Z,1010.60
2023-01-08T00:16:27.592Z,1010.60
2023-01-08T00:16:43.939Z,1010.29
2023-01-08T00:17:14.802Z,1010.29
2023-01-08T00:17:45.095Z,1010.19
2023-01-08T00:18:15.871Z,1010.19
2023-01-08T00:18:46.015Z,1010.19
2023-01-08T00:19:16.849Z,1010.19
2023-01-08T00:19:48.013Z,1010.09
2023-01-08T00:20:19.077Z,1010.09
2023-01-08T00:20:50.027Z,1010.19
2023-01-08T00:21:21.099Z,1010.19
2023-01-08T00:21:54.172Z,1010.09
2023-01-08T00:22:26.293Z,1010.09
2023-01-08T00:22:55.477Z,1010.19
2023-01-08T00:23:26.183Z,1010.19
2023-01-08T00:23:55.940Z,1010.40
2023-01-08T00:24:27.045Z,1010.40
2023-01-08T00:24:58.851Z,1010.19
2023-01-08T00:25:29.983Z,1010.19
2023-01-08T00:26:00.477Z,1010.19
2023-01-08T00:26:33.540Z,1010.19
2023-01-08T00:27:03.708Z,1010.19
2023-01-08T00:27:35.498Z,1010.09
2023-01-08T00:28:05.650Z,1010.09
2023-01-08T00:28:36.792Z,1010.19
2023-01-08T00:29:06.155Z,1010.19
2023-01-08T00:29:36.644Z,1010.19
2023-01-08T00:30:10.038Z,1010.19
2023-01-08T00:30:38.925Z,1010.09
2023-01-08T00:31:10.305Z,1010.09
2023-01-08T00:31:41.747Z,1010.40
2023-01-08T00:32:13.928Z,1010.40
2023-01-08T00:32:46.207Z,1010.09
2023-01-08T00:33:16.942Z,1010.09
2023-01-08T00:33:45.261Z,1010.29
2023-01-08T00:34:16.384Z,1010.29
2023-01-08T00:34:46.588Z,1009.99
2023-01-08T00:35:18.321Z,1009.99
2023-01-08T00:35:49.107Z,1009.89
2023-01-08T00:36:20.124Z,1009.89
2023-01-08T00:36:51.048Z,1010.19
2023-01-08T00:37:21.900Z,1010.19
2023-01-08T00:37:56.639Z,1010.19
2023-01-08T00:38:25.401Z,1010.19
2023-01-08T00:38:56.149Z,1009.99
2023-01-08T00:39:27.082Z,1009.99
2023-01-08T00:39:57.902Z,1009.99
2023-01-08T00:40:29.058Z,1009.99
2023-01-08T00:40:58.645Z,1010.09
2023-01-08T00:41:30.614Z,1010.29
2023-01-08T00:42:00.666Z,1010.29
2023-01-08T00:42:32.149Z,1010.29
2023-01-08T00:43:04.322Z,1010.29
2023-01-08T00:43:34.650Z,1010.09
2023-01-08T00:44:04.293Z,1010.09
2023-01-08T00:44:35.558Z,1010.40
2023-01-08T00:45:07.530Z,1010.40
2023-01-08T00:45:37.844Z,1010.29
2023-01-08T00:46:08.646Z,1010.29
2023-01-08T00:47:12.008Z,1010.19
2023-01-08T00:47:43.007Z,1010.29
2023-01-08T00:48:12.562Z,1010.29
2023-01-08T00:48:43.187Z,1010.29
2023-01-08T00:49:15.681Z,1010.29
2023-01-08T00:49:48.966Z,1010.19
2023-01-08T00:50:18.716Z,1010.19
2023-01-08T00:50:49.318Z,1010.29
2023-01-08T00:51:18.721Z,1010.29
2023-01-08T00:51:51.889Z,1010.09
2023-01-08T00:52:20.430Z,1010.09
2023-01-08T00:52:51.462Z,1010.29
2023-01-08T00:53:23.547Z,1010.29
2023-01-08T00:53:54.051Z,1010.40
2023-01-08T00:55:00.676Z,1010.40
2023-01-08T00:55:13.011Z,1010.19
2023-01-08T00:55:27.457Z,1010.19
2023-01-08T00:55:58.129Z,1010.40
2023-01-08T00:57:00.099Z,1010.70
2023-01-08T00:57:30.678Z,1010.40
2023-01-08T00:58:19.441Z,1010.40
2023-01-08T00:58:33.089Z,1010.40
2023-01-08T00:59:03.668Z,1010.40
2023-01-08T00:59:35.325Z,1010.60
2023-01-08T01:00:12.645Z,1010.60
2023-01-08T01:00:37.673Z,1010.40
2023-01-08T01:01:07.883Z,1010.40
2023-01-08T01:01:39.116Z,1010.40
2023-01-08T01:02:10.327Z,1010.40
2023-01-08T01:02:40.684Z,1010.40
2023-01-08T01:03:11.568Z,1010.40
2023-01-08T01:03:42.621Z,1010.19
2023-01-08T01:04:13.634Z,1010.19
2023-01-08T01:04:46.395Z,1010.29
2023-01-08T01:05:27.440Z,1010.29
2023-01-08T01:05:48.006Z,1010.50
2023-01-08T01:06:17.955Z,1010.50
2023-01-08T01:06:52.591Z,1010.40
2023-01-08T01:07:20.138Z,1010.40
2023-01-08T01:07:50.810Z,1010.19
2023-01-08T01:08:21.689Z,1010.19
2023-01-08T01:08:57.437Z,1010.29
2023-01-08T01:10:51.149Z,1010.29
2023-01-08T01:10:56.849Z,1010.40
2023-01-08T01:13:40.969Z,1010.40
2023-01-08T01:14:11.825Z,1010.29
2023-01-08T01:14:38.795Z,1010.40
2023-01-08T01:17:18.124Z,1010.40
2023-01-08T01:17:49.037Z,1010.29
2023-01-08T01:18:13.873Z,1010.29
2023-01-08T01:18:45.216Z,1010.29
2023-01-08T01:19:13.601Z,1010.29
2023-01-08T01:19:47.048Z,1010.40
2023-01-08T01:20:15.920Z,1010.40
2023-01-08T01:20:45.974Z,1010.19
2023-01-08T01:21:23.778Z,1010.19
2023-01-08T01:21:51.709Z,1010.19
2023-01-08T01:22:20.274Z,1010.19
2023-01-08T01:22:54.014Z,1010.19
2023-01-08T01:23:22.227Z,1010.19
2023-01-08T01:23:52.518Z,1010.19
2023-01-08T01:24:23.786Z,1010.19
2023-01-08T01:24:54.252Z,1010.29
2023-01-08T01:25:25.406Z,1010.29
2023-01-08T01:26:31.217Z,1010.09
2023-01-08T01:26:58.355Z,1009.99
2023-01-08T01:27:31.734Z,1010.19
2023-01-08T01:28:02.168Z,1010.19
2023-01-08T01:29:08.262Z,1010.29
2023-01-08T01:29:35.662Z,1010.09
2023-01-08T01:30:23.369Z,1010.09
2023-01-08T01:30:35.383Z,1009.99
2023-01-08T01:31:06.392Z,1009.99
2023-01-08T01:31:37.291Z,1009.99
2023-01-08T01:32:08.253Z,1009.99
2023-01-08T01:32:39.800Z,1009.99
2023-01-08T01:33:11.565Z,1009.99
2023-01-08T01:33:42.042Z,1010.19
2023-01-08T01:34:13.571Z,1010.19
2023-01-08T01:34:43.525Z,1009.99
2023-01-08T01:35:15.734Z,1009.99
2023-01-08T01:36:16.668Z,1010.09
2023-01-08T01:36:47.200Z,1009.99
2023-01-08T01:37:18.729Z,1009.99
2023-01-08T01:37:57.104Z,1009.99
2023-01-08T01:38:23.006Z,1009.99
2023-01-08T01:38:50.666Z,1009.89
2023-01-08T01:39:25.192Z,1009.89
2023-01-08T01:39:56.425Z,1009.99
2023-01-08T01:40:33.447Z,1009.99
2023-01-08T01:40:57.177Z,1009.89
2023-01-08T01:41:27.125Z,1009.89
2023-01-08T01:41:57.839Z,1009.99
2023-01-08T01:42:28.087Z,1009.99
2023-01-08T01:42:59.043Z,1009.89
2023-01-08T01:43:30.024Z,1009.99
2023-01-08T01:44:01.602Z,1009.99
2023-01-08T01:44:32.187Z,1009.99
2023-01-08T01:45:06.460Z,1009.99
2023-01-08T01:45:36.882Z,1009.99
2023-01-08T01:46:07.796Z,1009.99
2023-01-08T01:46:36.661Z,1009.89
2023-01-08T01:47:07.733Z,1009.89
2023-01-08T01:47:38.086Z,1009.89
2023-01-08T01:48:18.185Z,1009.89
2023-01-08T01:48:40.048Z,1010.09
2023-01-08T01:49:12.335Z,1010.09
2023-01-08T01:49:44.376Z,1009.99
2023-01-08T01:50:14.861Z,1009.99
2023-01-08T01:50:45.207Z,1009.89
2023-01-08T01:51:15.572Z,1009.89
2023-01-08T01:51:46.570Z,1009.79
2023-01-08T01:52:17.125Z,1009.79
2023-01-08T01:52:48.071Z,1009.89
2023-01-08T01:53:22.199Z,1009.89
2023-01-08T01:53:50.223Z,1009.79
2023-01-08T01:54:21.671Z,1009.79
2023-01-08T01:54:53.801Z,1009.89
2023-01-08T01:55:25.085Z,1009.89
2023-01-08T01:56:25.619Z,1009.79
2023-01-08T01:56:56.538Z,1009.79
2023-01-08T01:57:28.120Z,1009.79
2023-01-08T01:57:58.280Z,1009.89
2023-01-08T01:58:30.307Z,1009.89
2023-01-08T01:59:00.714Z,1009.89
2023-01-08T01:59:31.314Z,1009.89
2023-01-08T02:00:07.554Z,1009.89
2023-01-08T02:00:33.300Z,1010.09
2023-01-08T02:01:07.741Z,1010.09
2023-01-08T02:01:35.497Z,1009.99
2023-01-08T02:02:06.764Z,1009.99
2023-01-08T02:02:38.991Z,1009.89
2023-01-08T02:03:08.739Z,1009.89
2023-01-08T02:03:40.016Z,1009.89
2023-01-08T02:04:13.463Z,1009.89
2023-01-08T02:04:41.912Z,1010.09
2023-01-08T02:05:40.597Z,1010.09
2023-01-08T02:05:46.269Z,1010.09
2023-01-08T02:06:17.903Z,1010.09
2023-01-08T02:06:46.217Z,1009.99
2023-01-08T02:07:17.123Z,1009.99
2023-01-08T02:08:12.614Z,1009.89
2023-01-08T02:08:18.437Z,1009.89
2023-01-08T02:08:50.054Z,1009.99
2023-01-08T02:09:57.359Z,1009.99
2023-01-08T02:10:10.118Z,1009.99
2023-01-08T02:10:22.950Z,1009.99
2023-01-08T02:10:54.673Z,1009.79
2023-01-08T02:11:26.273Z,1009.79
2023-01-08T02:11:56.228Z,1010.09
2023-01-08T02:12:27.071Z,1010.09
2023-01-08T02:12:57.476Z,1010.09
2023-01-08T02:13:28.218Z,1010.09
2023-01-08T02:14:00.855Z,1009.89
2023-01-08T02:14:30.079Z,1009.89
2023-01-08T02:15:01.982Z,1009.89
2023-01-08T02:15:50.600Z,1009.68
2023-01-08T02:16:04.530Z,1009.68
2023-01-08T02:16:35.564Z,1009.68
2023-01-08T02:17:06.585Z,1009.68
2023-01-08T02:17:37.548Z,1009.79
2023-01-08T02:18:07.667Z,1009.79
2023-01-08T02:18:38.768Z,1009.79
2023-01-08T02:19:09.521Z,1009.79
2023-01-08T02:19:40.368Z,1009.89
2023-01-08T02:20:11.459Z,1009.89
2023-01-08T02:20:42.418Z,1009.79
2023-01-08T02:21:16.220Z,1009.79
2023-01-08T02:21:46.129Z,1009.99
2023-01-08T02:22:16.401Z,1009.99
2023-01-08T02:22:47.173Z,1009.89
2023-01-08T02:23:18.050Z,1009.89
2023-01-08T02:23:48.867Z,1009.89
2023-01-08T02:24:20.332Z,1009.89
2023-01-08T02:24:51.035Z,1009.79
2023-01-08T02:25:24.775Z,1009.79
2023-01-08T02:25:54.279Z,1009.68
2023-01-08T02:26:29.231Z,1009.68
2023-01-08T02:26:56.207Z,1009.89
2023-01-08T02:27:26.567Z,1009.89
2023-01-08T02:27:58.345Z,1009.58
2023-01-08T02:28:28.085Z,1009.58
2023-01-08T02:29:03.419Z,1009.79
2023-01-08T02:29:47.185Z,1009.89
2023-01-08T02:30:19.478Z,1009.89
2023-01-08T02:30:32.724Z,1009.79
2023-01-08T02:31:26.029Z,1009.79
2023-01-08T02:32:03.145Z,1009.89
2023-01-08T02:32:36.344Z,1009.79
2023-01-08T02:33:07.104Z,1009.79
2023-01-08T02:33:41.145Z,1009.79
2023-01-08T02:34:13.992Z,1009.79
2023-01-08T02:34:40.170Z,1009.79
2023-01-08T02:35:11.043Z,1009.79
2023-01-08T02:35:42.544Z,1009.58
2023-01-08T02:36:59.889Z,1009.58
2023-01-08T02:37:47.813Z,1009.79
2023-01-08T02:38:07.437Z,1009.89
2023-01-08T02:38:17.065Z,1009.89
2023-01-08T02:38:47.882Z,1009.68
2023-01-08T02:39:18.363Z,1009.68
2023-01-08T02:39:49.874Z,1009.68
2023-01-08T02:40:22.261Z,1009.68
2023-01-08T02:40:51.506Z,1009.99
2023-01-08T02:41:22.443Z,1009.99
2023-01-08T02:41:53.541Z,1009.99
2023-01-08T02:42:25.773Z,1009.99
2023-01-08T02:42:57.367Z,1009.68
2023-01-08T02:43:27.218Z,1009.68
2023-01-08T02:43:57.583Z,1009.79
2023-01-08T02:44:28.488Z,1009.79
2023-01-08T02:45:18.193Z,1009.68
2023-01-08T02:45:30.617Z,1009.51
2023-01-08T02:46:18.871Z,1009.51
2023-01-08T02:46:32.586Z,1009.58
2023-01-08T02:47:04.467Z,1009.58
2023-01-08T02:47:36.281Z,1009.58
2023-01-08T02:48:07.371Z,1009.58
2023-01-08T02:48:37.393Z,1009.58
2023-01-08T02:49:07.787Z,1009.58
2023-01-08T02:49:38.014Z,1009.58
2023-01-08T02:50:09.479Z,1009.58
2023-01-08T02:50:40.293Z,1009.58
2023-01-08T02:51:10.973Z,1009.58
2023-01-08T02:51:42.760Z,1009.68
2023-01-08T02:52:44.220Z,1009.68
2023-01-08T02:53:17.005Z,1009.68
2023-01-08T02:53:47.239Z,1009.89
2023-01-08T02:54:17.481Z,1009.89
2023-01-08T02:54:48.056Z,1009.51
2023-01-08T02:55:50.609Z,1009.58
2023-01-08T02:56:21.502Z,1009.58
2023-01-08T02:56:52.460Z,1009.58
2023-01-08T02:57:23.644Z,1009.58
2023-01-08T02:57:56.182Z,1009.68
2023-01-08T02:58:27.534Z,1009.68
2023-01-08T02:58:56.907Z,1009.68
2023-01-08T02:59:27.129Z,1009.68
2023-01-08T02:59:57.883Z,1009.58
2023-01-08T03:00:29.256Z,1009.68
2023-01-08T03:01:00.561Z,1009.68
2023-01-08T03:01:37.963Z,1009.41
2023-01-08T03:02:02.279Z,1009.41
2023-01-08T03:03:09.354Z,1009.58
2023-01-08T03:03:35.265Z,1009.68
2023-01-08T03:04:38.326Z,1009.58
2023-01-08T03:05:10.461Z,1009.58
2023-01-08T03:05:40.666Z,1009.58
2023-01-08T03:06:11.005Z,1009.58
2023-01-08T03:06:45.848Z,1009.51
2023-01-08T03:07:12.591Z,1009.51
2023-01-08T03:07:43.570Z,1009.58
2023-01-08T03:08:14.687Z,1009.58
2023-01-08T03:08:45.630Z,1009.41
2023-01-08T03:09:16.431Z,1009.41
2023-01-08T03:09:49.512Z,1009.58
2023-01-08T03:10:23.429Z,1009.58
2023-01-08T03:11:06.569Z,1009.51
2023-01-08T03:11:45.278Z,1009.51
2023-01-08T03:12:22.290Z,1009.79
2023-01-08T03:12:53.362Z,1009.58
2023-01-08T03:13:24.569Z,1009.58
2023-01-08T03:13:55.271Z,1009.79
2023-01-08T03:14:26.376Z,1009.79
2023-01-08T03:14:58.848Z,1009.58
2023-01-08T03:15:29.612Z,1009.58
2023-01-08T03:16:00.179Z,1009.79
2023-01-08T03:16:30.584Z,1009.58
2023-01-08T03:17:01.782Z,1009.58
2023-01-08T03:17:32.202Z,1009.51
2023-01-08T03:18:03.732Z,1009.51
2023-01-08T03:18:34.310Z,1009.41
2023-01-08T03:19:07.353Z,1009.41
2023-01-08T03:19:36.490Z,1009.41
2023-01-08T03:20:09.981Z,1009.41
2023-01-08T03:20:39.623Z,1009.51
2023-01-08T03:21:20.517Z,1009.51
2023-01-08T03:21:40.380Z,1009.51
2023-01-08T03:22:12.127Z,1009.51
2023-01-08T03:22:42.989Z,1009.41
2023-01-08T03:23:13.802Z,1009.41
2023-01-08T03:23:44.268Z,1009.58
2023-01-08T03:24:46.800Z,1009.41
2023-01-08T03:25:20.195Z,1009.41
2023-01-08T03:25:50.286Z,1009.51
2023-01-08T03:26:20.360Z,1009.51
2023-01-08T03:26:51.874Z,1009.41
2023-01-08T03:27:21.639Z,1009.41
2023-01-08T03:27:52.390Z,1009.41
2023-01-08T03:28:24.032Z,1009.41
2023-01-08T03:28:54.484Z,1009.41
2023-01-08T03:29:25.689Z,1009.41
2023-01-08T03:29:56.199Z,1009.51
2023-01-08T03:30:28.854Z,1009.51
2023-01-08T03:31:00.017Z,1009.41
2023-01-08T03:31:30.088Z,1009.51
2023-01-08T03:32:01.058Z,1009.51
2023-01-08T03:32:31.389Z,1009.31
2023-01-08T03:33:02.192Z,1009.31
2023-01-08T03:33:33.930Z,1009.51
2023-01-08T03:34:04.849Z,1009.51
2023-01-08T03:34:35.330Z,1009.41
2023-01-08T03:35:07.202Z,1009.41
2023-01-08T03:36:09.970Z,1009.51
2023-01-08T03:36:40.529Z,1009.41
2023-01-08T03:37:10.738Z,1009.41
2023-01-08T03:37:41.349Z,1009.51
2023-01-08T03:38:12.511Z,1009.51
2023-01-08T03:38:43.728Z,1009.58
2023-01-08T03:39:14.826Z,1009.58
2023-01-08T03:39:45.427Z,1009.58
2023-01-08T03:40:17.071Z,1009.58
2023-01-08T03:40:47.603Z,1009.58
2023-01-08T03:41:20.528Z,1009.58
2023-01-08T03:41:49.060Z,1009.68
2023-01-08T03:42:20.605Z,1009.68
2023-01-08T03:42:51.752Z,1009.41
2023-01-08T03:43:23.226Z,1009.41
2023-01-08T03:43:53.392Z,1009.51
2023-01-08T03:44:24.907Z,1009.51
2023-01-08T03:44:55.511Z,1009.58
2023-01-08T03:45:26.627Z,1009.58
2023-01-08T03:45:57.231Z,1009.41
2023-01-08T03:46:29.836Z,1009.41
2023-01-08T03:47:00.386Z,1009.41
2023-01-08T03:47:30.754Z,1009.58
2023-01-08T03:48:02.073Z,1009.58
2023-01-08T03:48:32.334Z,1009.41
2023-01-08T03:49:03.771Z,1009.41
2023-01-08T03:49:39.819Z,1009.21
2023-01-08T03:50:06.696Z,1009.21
2023-01-08T03:50:36.138Z,1009.41
2023-01-08T03:51:08.475Z,1009.41
2023-01-08T03:51:40.145Z,1009.31
2023-01-08T03:52:10.604Z,1009.31
2023-01-08T03:53:12.031Z,1009.51
2023-01-08T03:53:42.498Z,1009.31
2023-01-08T03:54:38.547Z,1009.31
2023-01-08T03:54:44.846Z,1009.11
2023-01-08T03:55:25.209Z,1009.11
2023-01-08T03:55:46.352Z,1009.11
2023-01-08T03:56:17.483Z,1009.11
2023-01-08T03:56:50.802Z,1009.01
2023-01-08T03:57:23.461Z,1009.01
2023-01-08T03:57:51.138Z,1009.21
2023-01-08T03:58:22.077Z,1009.21
2023-01-08T03:58:52.736Z,1009.21
2023-01-08T03:59:24.560Z,1009.21
2023-01-08T03:59:55.426Z,1009.01
2023-01-08T04:00:26.875Z,1009.01
2023-01-08T04:00:56.776Z,1009.11
2023-01-08T04:01:27.415Z,1009.11
2023-01-08T04:02:00.942Z,1009.21
2023-01-08T04:02:31.053Z,1009.01
2023-01-08T04:03:01.247Z,1009.01
2023-01-08T04:03:31.591Z,1009.21
2023-01-08T04:04:02.603Z,1009.21
2023-01-08T04:04:34.007Z,1009.21
2023-01-08T04:05:05.451Z,1009.21
2023-01-08T04:05:35.627Z,1009.01
2023-01-08T04:06:07.478Z,1009.01
2023-01-08T04:06:37.937Z,1009.21
2023-01-08T04:07:10.388Z,1009.21
2023-01-08T04:07:41.117Z,1008.91
2023-01-08T04:08:11.602Z,1008.91
2023-01-08T04:08:41.635Z,1009.11
2023-01-08T04:09:34.185Z,1009.11
2023-01-08T04:09:44.121Z,1009.11
2023-01-08T04:10:15.658Z,1009.11
2023-01-08T04:10:46.498Z,1009.11
2023-01-08T04:11:16.966Z,1009.11
2023-01-08T04:11:48.526Z,1009.11
2023-01-08T04:12:19.718Z,1009.11
2023-01-08T04:12:51.269Z,1009.01
2023-01-08T04:13:21.426Z,1009.01
2023-01-08T04:13:52.091Z,1009.11
2023-01-08T04:14:22.379Z,1009.11
2023-01-08T04:14:54.927Z,1009.21
2023-01-08T04:15:25.691Z,1009.21
2023-01-08T04:15:56.425Z,1009.21
2023-01-08T04:16:26.846Z,1009.21
2023-01-08T04:16:57.693Z,1009.21
2023-01-08T04:17:29.611Z,1009.21
2023-01-08T04:18:01.421Z,1009.21
2023-01-08T04:18:31.327Z,1009.41
2023-01-08T04:19:02.439Z,1009.41
2023-01-08T04:19:32.440Z,1009.21
2023-01-08T04:20:04.365Z,1009.21
2023-01-08T04:21:05.879Z,1009.31
2023-01-08T04:21:36.445Z,1009.31
2023-01-08T04:22:07.387Z,1009.31
2023-01-08T04:22:39.781Z,1009.11
2023-01-08T04:23:11.284Z,1009.11
2023-01-08T04:23:40.528Z,1009.21
2023-01-08T04:24:12.138Z,1009.21
2023-01-08T04:24:42.393Z,1009.41
2023-01-08T04:25:14.032Z,1009.41
2023-01-08T04:25:45.338Z,1009.21
2023-01-08T04:26:15.584Z,1009.21
2023-01-08T04:26:47.558Z,1009.21
2023-01-08T04:27:17.656Z,1009.21
2023-01-08T04:27:50.168Z,1009.11
2023-01-08T04:28:21.739Z,1009.11
2023-01-08T04:28:51.766Z,1009.11
2023-01-08T04:29:21.936Z,1009.11
2023-01-08T04:29:52.666Z,1009.21
2023-01-08T04:30:24.366Z,1009.21
2023-01-08T04:30:55.229Z,1009.01
2023-01-08T04:31:25.918Z,1009.01
2023-01-08T04:31:56.845Z,1009.11
2023-01-08T04:32:27.676Z,1009.11
2023-01-08T04:33:00.976Z,1009.11
2023-01-08T04:33:31.031Z,1009.01
2023-01-08T04:34:02.110Z,1009.01
2023-01-08T04:34:31.972Z,1009.01
2023-01-08T04:35:03.513Z,1009.01
2023-01-08T04:35:33.872Z,1009.11
2023-01-08T04:36:04.916Z,1009.11
2023-01-08T04:36:35.552Z,1008.91
2023-01-08T04:37:06.812Z,1008.91
2023-01-08T04:37:37.699Z,1009.01
2023-01-08T04:38:09.854Z,1009.01
2023-01-08T04:38:41.296Z,1009.11
2023-01-08T04:39:11.548Z,1009.11
2023-01-08T04:39:41.660Z,1009.11
2023-01-08T04:40:13.119Z,1009.11
2023-01-08T04:40:43.851Z,1008.80
2023-01-08T04:41:15.002Z,1008.80
2023-01-08T04:41:46.123Z,1009.21
2023-01-08T04:42:16.866Z,1009.21
2023-01-08T04:42:47.871Z,1009.01
2023-01-08T04:43:18.512Z,1009.01
2023-01-08T04:43:51.640Z,1008.80
2023-01-08T04:44:21.832Z,1008.80
2023-01-08T04:44:52.438Z,1008.91
2023-01-08T04:45:24.324Z,1008.91
2023-01-08T04:45:54.016Z,1008.91
2023-01-08T04:46:25.667Z,1008.91
2023-01-08T04:46:55.356Z,1008.91
2023-01-08T04:47:27.573Z,1008.91
2023-01-08T04:47:57.947Z,1008.80
2023-01-08T04:48:28.554Z,1008.80
2023-01-08T04:49:02.411Z,1008.70
2023-01-08T04:49:48.373Z,1008.70
2023-01-08T04:50:02.526Z,1008.70
2023-01-08T04:50:32.691Z,1008.91
2023-01-08T04:51:04.089Z,1008.91
2023-01-08T04:51:34.715Z,1008.70
2023-01-08T04:52:06.146Z,1008.70
2023-01-08T04:52:39.730Z,1008.80
2023-01-08T04:53:08.363Z,1008.80
2023-01-08T04:53:56.053Z,1008.80
2023-01-08T04:54:11.290Z,1008.80
2023-01-08T04:54:41.695Z,1008.91
2023-01-08T04:55:12.501Z,1008.91
2023-01-08T04:55:42.407Z,1008.91
2023-01-08T04:56:14.149Z,1008.91
2023-01-08T04:56:45.386Z,1009.01
2023-01-08T04:57:15.626Z,1009.01
2023-01-08T04:57:46.847Z,1008.80
2023-01-08T04:58:35.051Z,1008.80
2023-01-08T04:58:48.492Z,1008.80
2023-01-08T04:59:38.213Z,1008.91
2023-01-08T05:00:23.033Z,1008.91
2023-01-08T05:00:52.659Z,1008.80
2023-01-08T05:01:55.785Z,1008.91
2023-01-08T05:02:25.955Z,1008.91
2023-01-08T05:02:56.843Z,1008.91
2023-01-08T05:03:27.510Z,1008.91
2023-01-08T05:03:58.862Z,1008.91
2023-01-08T05:04:31.056Z,1008.91
2023-01-08T05:05:01.662Z,1008.91
2023-01-08T05:05:32.611Z,1008.91
2023-01-08T05:06:03.807Z,1008.91
2023-01-08T05:06:34.051Z,1008.80
2023-01-08T05:07:22.421Z,1008.80
2023-01-08T05:07:35.535Z,1008.91
2023-01-08T05:08:07.159Z,1008.91
2023-01-08T05:08:37.740Z,1008.80
2023-01-08T05:09:10.254Z,1008.80
2023-01-08T05:09:41.021Z,1008.80
2023-01-08T05:10:12.627Z,1008.80
2023-01-08T05:10:42.987Z,1008.91
2023-01-08T05:11:16.316Z,1008.91
2023-01-08T05:11:44.044Z,1009.11
2023-01-08T05:12:14.981Z,1009.11
2023-01-08T05:12:45.484Z,1008.80
2023-01-08T05:13:16.650Z,1008.80
2023-01-08T05:13:48.344Z,1008.80
2023-01-08T05:14:20.189Z,1008.80
2023-01-08T05:14:51.168Z,1008.91
2023-01-08T05:15:22.362Z,1008.91
2023-01-08T05:15:53.914Z,1008.91
2023-01-08T05:16:22.790Z,1008.91
2023-01-08T05:16:54.136Z,1008.60
2023-01-08T05:17:25.001Z,1008.60
2023-01-08T05:17:56.355Z,1008.80
2023-01-08T05:18:26.849Z,1008.80
2023-01-08T05:18:59.422Z,1008.70
2023-01-08T05:19:30.110Z,1008.80
2023-01-08T05:20:00.944Z,1008.80
2023-01-08T05:20:30.864Z,1008.80
2023-01-08T05:21:03.143Z,1008.80
2023-01-08T05:21:32.792Z,1009.01
2023-01-08T05:22:04.246Z,1009.01
2023-01-08T05:22:34.901Z,1009.01
2023-01-08T05:23:06.088Z,1009.01
2023-01-08T05:23:36.664Z,1009.01
2023-01-08T05:24:11.588Z,1009.01
2023-01-08T05:24:38.826Z,1008.91
2023-01-08T05:25:10.238Z,1008.91
2023-01-08T05:25:40.634Z,1008.80
2023-01-08T05:26:11.747Z,1008.80
2023-01-08T05:26:42.793Z,1008.80
2023-01-08T05:27:14.110Z,1008.80
2023-01-08T05:27:45.001Z,1008.80
2023-01-08T05:28:15.691Z,1008.80
2023-01-08T05:28:46.701Z,1008.80
2023-01-08T05:29:21.150Z,1008.80
2023-01-08T05:29:51.276Z,1008.80
2023-01-08T05:30:27.855Z,1008.80
2023-01-08T05:30:53.873Z,1008.70
2023-01-08T05:31:24.282Z,1008.70
2023-01-08T05:31:54.522Z,1008.91
2023-01-08T05:32:25.104Z,1008.91
2023-01-08T05:32:55.993Z,1008.91
2023-01-08T05:33:25.876Z,1008.91
2023-01-08T05:33:56.955Z,1008.60
2023-01-08T05:34:27.794Z,1008.60
2023-01-08T05:35:00.366Z,1008.70
2023-01-08T05:35:30.104Z,1008.91
2023-01-08T05:36:02.205Z,1008.91
2023-01-08T05:36:33.142Z,1008.70
2023-01-08T05:37:03.579Z,1008.70
2023-01-08T05:37:34.240Z,1008.91
2023-01-08T05:38:06.021Z,1008.91
2023-01-08T05:38:35.815Z,1008.70
2023-01-08T05:39:07.540Z,1008.70
2023-01-08T05:39:55.120Z,1008.70
2023-01-08T05:40:10.195Z,1008.70
2023-01-08T05:40:39.797Z,1008.80
2023-01-08T05:41:10.684Z,1008.80
2023-01-08T05:41:41.822Z,1008.80
2023-01-08T05:42:13.154Z,1008.80
2023-01-08T05:42:44.499Z,1008.70
2023-01-08T05:43:15.206Z,1008.70
2023-01-08T05:43:46.001Z,1008.80
2023-01-08T05:44:16.850Z,1008.80
2023-01-08T05:44:47.832Z,1008.70
2023-01-08T05:45:19.367Z,1008.70
2023-01-08T05:45:50.162Z,1008.60
2023-01-08T05:46:21.127Z,1008.60
2023-01-08T05:46:52.021Z,1008.60
2023-01-08T05:47:22.942Z,1008.60
2023-01-08T05:47:54.139Z,1008.60
2023-01-08T05:48:25.315Z,1008.60
2023-01-08T05:48:55.962Z,1008.70
2023-01-08T05:49:42.959Z,1008.80
2023-01-08T05:49:58.289Z,1008.80
2023-01-08T05:50:29.906Z,1008.80
2023-01-08T05:50:59.683Z,1008.80
2023-01-08T05:51:31.282Z,1008.80
2023-01-08T05:52:01.824Z,1008.80
2023-01-08T05:52:32.646Z,1008.80
2023-01-08T05:53:04.715Z,1008.80
2023-01-08T05:53:35.485Z,1008.80
2023-01-08T05:54:06.739Z,1008.80
2023-01-08T05:54:37.045Z,1008.70
2023-01-08T05:55:08.855Z,1008.70
2023-01-08T05:55:39.015Z,1008.70
2023-01-08T05:56:11.017Z,1008.70
2023-01-08T05:56:40.924Z,1008.80
2023-01-08T05:57:18.661Z,1008.80
2023-01-08T05:57:44.699Z,1009.01
2023-01-08T05:58:14.471Z,1009.01
2023-01-08T05:58:45.323Z,1008.80
2023-01-08T05:59:16.194Z,1008.80
2023-01-08T05:59:49.170Z,1009.11
2023-01-08T06:00:19.947Z,1009.11
2023-01-08T06:00:49.023Z,1008.91
2023-01-08T06:01:20.311Z,1008.91
2023-01-08T06:01:50.992Z,1008.91
2023-01-08T06:02:23.213Z,1008.91
2023-01-08T06:02:53.084Z,1008.70
2023-01-08T06:03:24.103Z,1008.70
2023-01-08T06:03:55.286Z,1008.70
2023-01-08T06:04:25.894Z,1008.70
2023-01-08T06:04:56.981Z,1008.80
2023-01-08T06:05:29.182Z,1008.80
2023-01-08T06:05:59.958Z,1009.01
2023-01-08T06:06:29.854Z,1008.80
2023-01-08T06:07:01.085Z,1008.80
2023-01-08T06:07:31.713Z,1008.70
2023-01-08T06:08:12.562Z,1008.70
2023-01-08T06:08:34.063Z,1009.01
2023-01-08T06:09:06.938Z,1009.01
2023-01-08T06:09:35.989Z,1008.70
2023-01-08T06:10:08.725Z,1008.70
2023-01-08T06:10:39.535Z,1008.91
2023-01-08T06:11:09.843Z,1008.91
2023-01-08T06:11:40.055Z,1008.91
2023-01-08T06:12:31.965Z,1008.91
2023-01-08T06:12:42.033Z,1008.70
2023-01-08T06:13:14.506Z,1008.70
2023-01-08T06:13:44.324Z,1008.80
2023-01-08T06:14:15.091Z,1008.80
2023-01-08T06:14:45.800Z,1008.80
2023-01-08T06:15:21.321Z,1008.80
2023-01-08T06:15:49.820Z,1008.70
2023-01-08T06:16:20.167Z,1008.70
2023-01-08T06:16:57.986Z,1008.80
2023-01-08T06:17:20.852Z,1008.80
2023-01-08T06:17:51.896Z,1008.60
2023-01-08T06:18:23.374Z,1008.60
2023-01-08T06:18:54.441Z,1008.70
2023-01-08T06:19:25.714Z,1008.70
2023-01-08T06:20:21.958Z,1008.91
2023-01-08T06:20:27.311Z,1008.91
2023-01-08T06:20:58.544Z,1008.60
2023-01-08T06:21:29.162Z,1008.50
2023-01-08T06:22:00.502Z,1008.50
2023-01-08T06:22:32.952Z,1008.50
2023-01-08T06:23:03.528Z,1008.50
2023-01-08T06:23:34.603Z,1008.80
2023-01-08T06:24:05.200Z,1008.80
2023-01-08T06:24:35.662Z,1008.50
2023-01-08T06:25:06.907Z,1008.50
2023-01-08T06:25:36.868Z,1008.60
2023-01-08T06:26:07.875Z,1008.60
2023-01-08T06:26:39.087Z,1008.30
2023-01-08T06:27:09.855Z,1008.30
2023-01-08T06:27:41.168Z,1008.30
2023-01-08T06:28:13.625Z,1008.30
2023-01-08T06:28:44.999Z,1008.30
2023-01-08T06:29:14.794Z,1008.30
2023-01-08T06:29:45.586Z,1008.50
2023-01-08T06:30:17.424Z,1008.50